sensor_id;sensor_type;location;lat;lon;timestamp;temperature;humidity
18321;DHT22;54904;54.350;18.664;2022-12-18T00:00:04;2.60;95.00
18321;DHT22;54904;54.350;18.664;2022-12-18T00:02:39;2.50;95.00
18321;DHT22;54904;54.350;18.664;2022-12-18T00:05:07;2.50;95.00
18321;DHT22;54904;54.350;18.664;2022-12-18T00:07:35;2.50;95.00
18321;DHT22;54904;54.350;18.664;2022-12-18T00:10:04;2.50;95.00
18321;DHT22;54904;54.350;18.664;2022-12-18T00:12:31;2.50;95.10
18321;DHT22;54904;54.350;18.664;2022-12-18T00:14:58;2.40;95.00
18321;DHT22;54904;54.350;18.664;2022-12-18T00:17:25;2.40;95.10
18321;DHT22;54904;54.350;18.664;2022-12-18T00:19:52;2.40;95.20
18321;DHT22;54904;54.350;18.664;2022-12-18T00:22:20;2.40;95.10
18321;DHT22;54904;54.350;18.664;2022-12-18T00:24:48;2.40;95.10
18321;DHT22;54904;54.350;18.664;2022-12-18T00:27:15;2.50;95.10
18321;DHT22;54904;54.350;18.664;2022-12-18T00:29:42;2.50;95.10
18321;DHT22;54904;54.350;18.664;2022-12-18T00:32:09;2.40;95.00
18321;DHT22;54904;54.350;18.664;2022-12-18T00:34:37;2.40;94.90
18321;DHT22;54904;54.350;18.664;2022-12-18T00:37:04;2.40;95.00
18321;DHT22;54904;54.350;18.664;2022-12-18T00:39:31;2.40;95.00
18321;DHT22;54904;54.350;18.664;2022-12-18T00:42:00;2.40;95.00
18321;DHT22;54904;54.350;18.664;2022-12-18T00:44:44;2.40;95.00
18321;DHT22;54904;54.350;18.664;2022-12-18T00:47:12;2.40;94.90
18321;DHT22;54904;54.350;18.664;2022-12-18T00:49:39;2.40;94.80
18321;DHT22;54904;54.350;18.664;2022-12-18T00:52:06;2.30;94.60
18321;DHT22;54904;54.350;18.664;2022-12-18T00:54:33;2.30;94.60
18321;DHT22;54904;54.350;18.664;2022-12-18T00:57:02;2.30;94.60
18321;DHT22;54904;54.350;18.664;2022-12-18T00:59:29;2.20;94.50
18321;DHT22;54904;54.350;18.664;2022-12-18T01:01:56;1.70;94.20
18321;DHT22;54904;54.350;18.664;2022-12-18T01:04:24;2.10;94.40
18321;DHT22;54904;54.350;18.664;2022-12-18T01:06:51;2.10;94.50
18321;DHT22;54904;54.350;18.664;2022-12-18T01:09:18;2.00;94.50
18321;DHT22;54904;54.350;18.664;2022-12-18T01:11:45;2.00;94.60
18321;DHT22;54904;54.350;18.664;2022-12-18T01:14:16;1.90;94.50
18321;DHT22;54904;54.350;18.664;2022-12-18T01:16:43;1.90;94.60
18321;DHT22;54904;54.350;18.664;2022-12-18T01:19:10;1.90;94.90
18321;DHT22;54904;54.350;18.664;2022-12-18T01:21:37;1.90;94.60
18321;DHT22;54904;54.350;18.664;2022-12-18T01:24:05;1.90;94.60
18321;DHT22;54904;54.350;18.664;2022-12-18T01:26:33;1.90;94.70
18321;DHT22;54904;54.350;18.664;2022-12-18T01:29:00;1.90;94.80
18321;DHT22;54904;54.350;18.664;2022-12-18T01:31:31;1.90;94.80
18321;DHT22;54904;54.350;18.664;2022-12-18T01:34:02;1.90;94.90
18321;DHT22;54904;54.350;18.664;2022-12-18T01:36:31;1.90;95.30
18321;DHT22;54904;54.350;18.664;2022-12-18T01:38:59;2.00;95.10
18321;DHT22;54904;54.350;18.664;2022-12-18T01:41:29;1.90;95.10
18321;DHT22;54904;54.350;18.664;2022-12-18T01:47:36;1.90;95.20
18321;DHT22;54904;54.350;18.664;2022-12-18T01:50:09;1.90;95.30
18321;DHT22;54904;54.350;18.664;2022-12-18T01:52:37;1.90;95.40
18321;DHT22;54904;54.350;18.664;2022-12-18T01:55:06;1.90;95.50
18321;DHT22;54904;54.350;18.664;2022-12-18T01:57:34;1.90;95.60
18321;DHT22;54904;54.350;18.664;2022-12-18T02:00:06;1.90;95.60
18321;DHT22;54904;54.350;18.664;2022-12-18T02:02:41;1.90;95.70
18321;DHT22;54904;54.350;18.664;2022-12-18T02:05:10;2.00;95.80
18321;DHT22;54904;54.350;18.664;2022-12-18T02:07:43;2.00;95.90
18321;DHT22;54904;54.350;18.664;2022-12-18T02:10:17;2.40;96.10
18321;DHT22;54904;54.350;18.664;2022-12-18T02:12:49;2.10;96.00
18321;DHT22;54904;54.350;18.664;2022-12-18T02:15:25;2.10;96.10
18321;DHT22;54904;54.350;18.664;2022-12-18T02:17:57;2.10;96.00
18321;DHT22;54904;54.350;18.664;2022-12-18T02:20:32;2.20;96.10
18321;DHT22;54904;54.350;18.664;2022-12-18T02:23:06;2.20;96.10
18321;DHT22;54904;54.350;18.664;2022-12-18T02:25:53;2.20;96.10
18321;DHT22;54904;54.350;18.664;2022-12-18T02:28:29;2.60;96.30
18321;DHT22;54904;54.350;18.664;2022-12-18T02:31:02;2.40;96.30
18321;DHT22;54904;54.350;18.664;2022-12-18T02:33:34;2.50;96.30
18321;DHT22;54904;54.350;18.664;2022-12-18T02:36:03;2.40;96.20
18321;DHT22;54904;54.350;18.664;2022-12-18T02:38:34;2.40;96.30
18321;DHT22;54904;54.350;18.664;2022-12-18T02:41:10;2.50;96.30
18321;DHT22;54904;54.350;18.664;2022-12-18T02:43:40;2.50;96.30
18321;DHT22;54904;54.350;18.664;2022-12-18T02:46:27;2.50;96.40
18321;DHT22;54904;54.350;18.664;2022-12-18T02:49:12;2.50;96.30
18321;DHT22;54904;54.350;18.664;2022-12-18T02:51:50;2.40;96.30
18321;DHT22;54904;54.350;18.664;2022-12-18T02:54:26;2.50;96.40
18321;DHT22;54904;54.350;18.664;2022-12-18T02:57:05;2.60;96.40
18321;DHT22;54904;54.350;18.664;2022-12-18T02:59:41;2.50;96.30
18321;DHT22;54904;54.350;18.664;2022-12-18T03:02:19;2.50;96.30
18321;DHT22;54904;54.350;18.664;2022-12-18T03:04:51;2.50;96.30
18321;DHT22;54904;54.350;18.664;2022-12-18T03:07:27;3.20;96.60
18321;DHT22;54904;54.350;18.664;2022-12-18T03:10:00;2.60;96.30
18321;DHT22;54904;54.350;18.664;2022-12-18T03:12:31;2.50;96.30
18321;DHT22;54904;54.350;18.664;2022-12-18T03:15:02;2.50;96.30
18321;DHT22;54904;54.350;18.664;2022-12-18T03:17:32;2.50;96.30
18321;DHT22;54904;54.350;18.664;2022-12-18T03:20:03;2.60;96.30
18321;DHT22;54904;54.350;18.664;2022-12-18T03:22:33;2.50;96.20
18321;DHT22;54904;54.350;18.664;2022-12-18T03:25:05;2.50;96.20
18321;DHT22;54904;54.350;18.664;2022-12-18T03:27:38;2.50;96.20
18321;DHT22;54904;54.350;18.664;2022-12-18T03:30:14;2.50;96.20
18321;DHT22;54904;54.350;18.664;2022-12-18T03:32:44;2.40;96.20
18321;DHT22;54904;54.350;18.664;2022-12-18T03:35:18;2.50;96.20
18321;DHT22;54904;54.350;18.664;2022-12-18T03:37:47;2.50;96.30
18321;DHT22;54904;54.350;18.664;2022-12-18T03:40:14;2.50;96.30
18321;DHT22;54904;54.350;18.664;2022-12-18T03:42:47;2.50;96.30
18321;DHT22;54904;54.350;18.664;2022-12-18T03:45:22;2.40;96.30
18321;DHT22;54904;54.350;18.664;2022-12-18T03:47:58;2.50;96.30
18321;DHT22;54904;54.350;18.664;2022-12-18T03:50:37;2.50;96.30
18321;DHT22;54904;54.350;18.664;2022-12-18T03:53:15;2.50;96.20
18321;DHT22;54904;54.350;18.664;2022-12-18T03:55:47;2.40;96.10
18321;DHT22;54904;54.350;18.664;2022-12-18T03:58:20;2.40;96.10
18321;DHT22;54904;54.350;18.664;2022-12-18T04:01:07;2.40;96.10
18321;DHT22;54904;54.350;18.664;2022-12-18T04:03:36;2.40;96.10
18321;DHT22;54904;54.350;18.664;2022-12-18T04:06:09;2.50;96.10
18321;DHT22;54904;54.350;18.664;2022-12-18T04:08:40;2.30;95.90
18321;DHT22;54904;54.350;18.664;2022-12-18T04:11:10;2.30;95.80
18321;DHT22;54904;54.350;18.664;2022-12-18T04:13:39;2.30;95.80
18321;DHT22;54904;54.350;18.664;2022-12-18T04:16:16;2.30;95.70
18321;DHT22;54904;54.350;18.664;2022-12-18T04:18:44;2.20;95.60
18321;DHT22;54904;54.350;18.664;2022-12-18T04:21:14;2.20;95.60
18321;DHT22;54904;54.350;18.664;2022-12-18T04:23:41;2.20;95.60
18321;DHT22;54904;54.350;18.664;2022-12-18T04:26:08;2.20;95.60
18321;DHT22;54904;54.350;18.664;2022-12-18T04:28:50;2.10;95.50
18321;DHT22;54904;54.350;18.664;2022-12-18T04:31:17;2.10;95.50
18321;DHT22;54904;54.350;18.664;2022-12-18T04:33:44;2.10;95.50
18321;DHT22;54904;54.350;18.664;2022-12-18T04:36:12;2.10;95.40
18321;DHT22;54904;54.350;18.664;2022-12-18T04:38:40;2.10;95.50
18321;DHT22;54904;54.350;18.664;2022-12-18T04:41:11;2.10;95.40
18321;DHT22;54904;54.350;18.664;2022-12-18T04:43:40;2.10;95.30
18321;DHT22;54904;54.350;18.664;2022-12-18T04:46:09;2.20;95.40
18321;DHT22;54904;54.350;18.664;2022-12-18T04:48:36;2.20;95.40
18321;DHT22;54904;54.350;18.664;2022-12-18T04:51:04;2.20;95.30
18321;DHT22;54904;54.350;18.664;2022-12-18T04:53:32;2.20;95.20
18321;DHT22;54904;54.350;18.664;2022-12-18T04:56:03;2.20;95.10
18321;DHT22;54904;54.350;18.664;2022-12-18T04:58:31;2.20;95.10
18321;DHT22;54904;54.350;18.664;2022-12-18T05:00:58;2.30;95.00
18321;DHT22;54904;54.350;18.664;2022-12-18T05:03:27;2.20;94.90
18321;DHT22;54904;54.350;18.664;2022-12-18T05:05:54;2.20;95.00
18321;DHT22;54904;54.350;18.664;2022-12-18T05:08:21;2.30;94.90
18321;DHT22;54904;54.350;18.664;2022-12-18T05:10:48;2.30;94.80
18321;DHT22;54904;54.350;18.664;2022-12-18T05:13:15;2.30;94.80
18321;DHT22;54904;54.350;18.664;2022-12-18T05:15:42;2.30;95.00
18321;DHT22;54904;54.350;18.664;2022-12-18T05:18:09;2.30;94.60
18321;DHT22;54904;54.350;18.664;2022-12-18T05:20:38;2.30;94.60
18321;DHT22;54904;54.350;18.664;2022-12-18T05:23:05;2.40;94.60
18321;DHT22;54904;54.350;18.664;2022-12-18T05:25:32;2.30;94.70
18321;DHT22;54904;54.350;18.664;2022-12-18T05:27:59;2.30;94.50
18321;DHT22;54904;54.350;18.664;2022-12-18T05:30:26;2.20;94.50
18321;DHT22;54904;54.350;18.664;2022-12-18T05:32:54;2.30;94.50
18321;DHT22;54904;54.350;18.664;2022-12-18T05:35:21;2.30;94.50
18321;DHT22;54904;54.350;18.664;2022-12-18T05:37:49;2.30;94.50
18321;DHT22;54904;54.350;18.664;2022-12-18T05:40:17;2.30;94.40
18321;DHT22;54904;54.350;18.664;2022-12-18T05:42:44;2.30;94.40
18321;DHT22;54904;54.350;18.664;2022-12-18T05:45:11;2.30;94.30
18321;DHT22;54904;54.350;18.664;2022-12-18T05:47:38;2.30;94.40
18321;DHT22;54904;54.350;18.664;2022-12-18T05:50:06;2.30;94.30
18321;DHT22;54904;54.350;18.664;2022-12-18T05:52:34;2.20;94.20
18321;DHT22;54904;54.350;18.664;2022-12-18T05:55:02;2.20;94.20
18321;DHT22;54904;54.350;18.664;2022-12-18T05:57:30;2.20;94.20
18321;DHT22;54904;54.350;18.664;2022-12-18T05:59:57;2.20;94.10
18321;DHT22;54904;54.350;18.664;2022-12-18T06:02:24;2.30;94.20
18321;DHT22;54904;54.350;18.664;2022-12-18T06:04:51;2.20;94.10
18321;DHT22;54904;54.350;18.664;2022-12-18T06:07:18;2.20;94.10
18321;DHT22;54904;54.350;18.664;2022-12-18T06:09:45;2.20;94.10
18321;DHT22;54904;54.350;18.664;2022-12-18T06:12:14;2.20;94.00
18321;DHT22;54904;54.350;18.664;2022-12-18T06:14:41;2.20;94.00
18321;DHT22;54904;54.350;18.664;2022-12-18T06:17:08;2.20;93.90
18321;DHT22;54904;54.350;18.664;2022-12-18T06:19:35;2.20;93.90
18321;DHT22;54904;54.350;18.664;2022-12-18T06:22:02;2.20;93.90
18321;DHT22;54904;54.350;18.664;2022-12-18T06:24:30;2.20;93.90
18321;DHT22;54904;54.350;18.664;2022-12-18T06:26:57;2.20;93.90
18321;DHT22;54904;54.350;18.664;2022-12-18T06:29:25;2.20;93.90
18321;DHT22;54904;54.350;18.664;2022-12-18T06:31:52;2.20;93.80
18321;DHT22;54904;54.350;18.664;2022-12-18T06:34:20;2.20;93.80
18321;DHT22;54904;54.350;18.664;2022-12-18T06:36:47;2.10;93.80
18321;DHT22;54904;54.350;18.664;2022-12-18T06:39:14;2.10;93.90
18321;DHT22;54904;54.350;18.664;2022-12-18T06:41:41;2.10;93.80
18321;DHT22;54904;54.350;18.664;2022-12-18T06:44:08;2.10;93.70
18321;DHT22;54904;54.350;18.664;2022-12-18T06:46:36;2.10;93.60
18321;DHT22;54904;54.350;18.664;2022-12-18T06:49:04;2.10;93.70
18321;DHT22;54904;54.350;18.664;2022-12-18T06:51:32;2.10;93.60
18321;DHT22;54904;54.350;18.664;2022-12-18T06:53:59;2.10;93.60
18321;DHT22;54904;54.350;18.664;2022-12-18T06:56:26;2.10;93.70
18321;DHT22;54904;54.350;18.664;2022-12-18T06:58:54;2.10;93.60
18321;DHT22;54904;54.350;18.664;2022-12-18T07:01:22;2.00;93.50
18321;DHT22;54904;54.350;18.664;2022-12-18T07:03:53;2.40;93.70
18321;DHT22;54904;54.350;18.664;2022-12-18T07:06:22;2.00;93.40
18321;DHT22;54904;54.350;18.664;2022-12-18T07:08:50;2.00;93.30
18321;DHT22;54904;54.350;18.664;2022-12-18T07:11:19;2.20;93.40
18321;DHT22;54904;54.350;18.664;2022-12-18T07:13:47;2.00;93.10
18321;DHT22;54904;54.350;18.664;2022-12-18T07:16:16;2.00;93.20
18321;DHT22;54904;54.350;18.664;2022-12-18T07:18:43;2.00;93.20
18321;DHT22;54904;54.350;18.664;2022-12-18T07:21:13;2.00;93.20
18321;DHT22;54904;54.350;18.664;2022-12-18T07:23:41;2.00;93.10
18321;DHT22;54904;54.350;18.664;2022-12-18T07:26:09;1.90;93.10
18321;DHT22;54904;54.350;18.664;2022-12-18T07:28:38;1.90;93.30
18321;DHT22;54904;54.350;18.664;2022-12-18T07:31:07;1.90;92.90
18321;DHT22;54904;54.350;18.664;2022-12-18T07:33:34;1.90;93.00
18321;DHT22;54904;54.350;18.664;2022-12-18T07:36:02;1.80;93.00
18321;DHT22;54904;54.350;18.664;2022-12-18T07:38:32;1.90;93.10
18321;DHT22;54904;54.350;18.664;2022-12-18T07:41:03;1.90;92.90
18321;DHT22;54904;54.350;18.664;2022-12-18T07:43:30;2.00;92.90
18321;DHT22;54904;54.350;18.664;2022-12-18T07:45:57;2.00;92.90
18321;DHT22;54904;54.350;18.664;2022-12-18T07:48:25;2.00;92.80
18321;DHT22;54904;54.350;18.664;2022-12-18T07:50:52;2.10;92.80
18321;DHT22;54904;54.350;18.664;2022-12-18T07:53:19;2.20;92.70
18321;DHT22;54904;54.350;18.664;2022-12-18T07:55:55;2.30;92.60
18321;DHT22;54904;54.350;18.664;2022-12-18T07:58:22;2.30;92.60
18321;DHT22;54904;54.350;18.664;2022-12-18T08:00:49;2.30;92.60
18321;DHT22;54904;54.350;18.664;2022-12-18T08:03:18;2.40;92.50
18321;DHT22;54904;54.350;18.664;2022-12-18T08:05:48;2.40;92.40
18321;DHT22;54904;54.350;18.664;2022-12-18T08:08:16;2.50;92.50
18321;DHT22;54904;54.350;18.664;2022-12-18T08:10:43;2.60;92.40
18321;DHT22;54904;54.350;18.664;2022-12-18T08:13:11;2.60;92.60
18321;DHT22;54904;54.350;18.664;2022-12-18T08:15:39;2.70;92.30
18321;DHT22;54904;54.350;18.664;2022-12-18T08:18:06;2.70;92.20
18321;DHT22;54904;54.350;18.664;2022-12-18T08:20:33;2.70;92.30
18321;DHT22;54904;54.350;18.664;2022-12-18T08:23:00;2.70;92.10
18321;DHT22;54904;54.350;18.664;2022-12-18T08:25:27;2.70;92.00
18321;DHT22;54904;54.350;18.664;2022-12-18T08:27:54;2.80;92.00
18321;DHT22;54904;54.350;18.664;2022-12-18T08:30:24;2.80;92.10
18321;DHT22;54904;54.350;18.664;2022-12-18T08:32:51;2.80;91.90
18321;DHT22;54904;54.350;18.664;2022-12-18T08:35:18;2.80;91.90
18321;DHT22;54904;54.350;18.664;2022-12-18T08:37:45;2.90;91.90
18321;DHT22;54904;54.350;18.664;2022-12-18T08:40:13;3.00;92.00
18321;DHT22;54904;54.350;18.664;2022-12-18T08:42:40;3.20;92.10
18321;DHT22;54904;54.350;18.664;2022-12-18T08:45:26;3.40;91.80
18321;DHT22;54904;54.350;18.664;2022-12-18T08:47:53;3.80;91.80
18321;DHT22;54904;54.350;18.664;2022-12-18T08:50:24;4.00;91.60
18321;DHT22;54904;54.350;18.664;2022-12-18T08:52:51;4.20;91.30
18321;DHT22;54904;54.350;18.664;2022-12-18T08:55:18;4.30;90.90
18321;DHT22;54904;54.350;18.664;2022-12-18T08:57:48;4.20;90.90
18321;DHT22;54904;54.350;18.664;2022-12-18T09:00:15;4.30;90.70
18321;DHT22;54904;54.350;18.664;2022-12-18T09:02:44;4.30;90.70
18321;DHT22;54904;54.350;18.664;2022-12-18T09:05:11;4.30;90.50
18321;DHT22;54904;54.350;18.664;2022-12-18T09:07:38;4.40;90.40
18321;DHT22;54904;54.350;18.664;2022-12-18T09:10:06;4.40;90.20
18321;DHT22;54904;54.350;18.664;2022-12-18T09:12:33;4.40;90.10
18321;DHT22;54904;54.350;18.664;2022-12-18T09:15:00;4.40;89.90
18321;DHT22;54904;54.350;18.664;2022-12-18T09:17:27;3.70;89.10
18321;DHT22;54904;54.350;18.664;2022-12-18T09:19:56;4.50;90.00
18321;DHT22;54904;54.350;18.664;2022-12-18T09:22:23;4.50;89.70
18321;DHT22;54904;54.350;18.664;2022-12-18T09:24:50;4.60;89.80
18321;DHT22;54904;54.350;18.664;2022-12-18T09:27:17;4.70;89.60
18321;DHT22;54904;54.350;18.664;2022-12-18T09:29:44;5.00;89.20
18321;DHT22;54904;54.350;18.664;2022-12-18T09:32:11;5.30;88.40
18321;DHT22;54904;54.350;18.664;2022-12-18T09:34:38;5.60;87.60
18321;DHT22;54904;54.350;18.664;2022-12-18T09:37:07;5.70;87.00
18321;DHT22;54904;54.350;18.664;2022-12-18T09:39:34;6.00;86.40
18321;DHT22;54904;54.350;18.664;2022-12-18T09:42:01;6.00;85.40
18321;DHT22;54904;54.350;18.664;2022-12-18T09:44:30;5.90;84.80
18321;DHT22;54904;54.350;18.664;2022-12-18T09:47:04;5.90;84.80
18321;DHT22;54904;54.350;18.664;2022-12-18T09:49:35;5.90;84.60
18321;DHT22;54904;54.350;18.664;2022-12-18T09:52:11;6.10;83.90
18321;DHT22;54904;54.350;18.664;2022-12-18T09:54:41;6.20;82.30
18321;DHT22;54904;54.350;18.664;2022-12-18T09:57:13;6.40;81.90
18321;DHT22;54904;54.350;18.664;2022-12-18T09:59:42;6.50;80.20
18321;DHT22;54904;54.350;18.664;2022-12-18T10:02:18;6.50;80.10
18321;DHT22;54904;54.350;18.664;2022-12-18T10:05:02;6.50;79.80
18321;DHT22;54904;54.350;18.664;2022-12-18T10:07:49;6.50;79.40
18321;DHT22;54904;54.350;18.664;2022-12-18T10:10:29;6.50;78.90
18321;DHT22;54904;54.350;18.664;2022-12-18T10:13:05;6.80;79.00
18321;DHT22;54904;54.350;18.664;2022-12-18T10:15:37;7.10;78.60
18321;DHT22;54904;54.350;18.664;2022-12-18T10:18:22;7.60;77.70
18321;DHT22;54904;54.350;18.664;2022-12-18T10:20:56;8.20;76.40
18321;DHT22;54904;54.350;18.664;2022-12-18T10:23:32;8.70;74.50
18321;DHT22;54904;54.350;18.664;2022-12-18T10:26:03;9.10;72.80
18321;DHT22;54904;54.350;18.664;2022-12-18T10:28:31;9.40;71.00
18321;DHT22;54904;54.350;18.664;2022-12-18T10:30:59;9.60;69.80
18321;DHT22;54904;54.350;18.664;2022-12-18T10:33:29;9.50;69.10
18321;DHT22;54904;54.350;18.664;2022-12-18T10:35:57;9.50;68.20
18321;DHT22;54904;54.350;18.664;2022-12-18T10:38:27;9.40;67.30
18321;DHT22;54904;54.350;18.664;2022-12-18T10:40:57;9.20;67.80
18321;DHT22;54904;54.350;18.664;2022-12-18T10:43:26;9.10;67.20
18321;DHT22;54904;54.350;18.664;2022-12-18T10:46:15;8.90;65.50
18321;DHT22;54904;54.350;18.664;2022-12-18T10:48:53;8.90;65.80
18321;DHT22;54904;54.350;18.664;2022-12-18T10:51:23;8.90;65.30
18321;DHT22;54904;54.350;18.664;2022-12-18T10:53:57;9.20;65.30
18321;DHT22;54904;54.350;18.664;2022-12-18T10:56:28;9.60;65.00
18321;DHT22;54904;54.350;18.664;2022-12-18T10:58:59;9.60;63.80
18321;DHT22;54904;54.350;18.664;2022-12-18T11:01:27;9.20;62.30
18321;DHT22;54904;54.350;18.664;2022-12-18T11:04:07;8.70;62.10
18321;DHT22;54904;54.350;18.664;2022-12-18T11:06:53;8.30;62.30
18321;DHT22;54904;54.350;18.664;2022-12-18T11:09:23;7.90;62.50
18321;DHT22;54904;54.350;18.664;2022-12-18T11:11:53;7.50;62.70
18321;DHT22;54904;54.350;18.664;2022-12-18T11:14:23;7.30;63.50
18321;DHT22;54904;54.350;18.664;2022-12-18T11:16:52;7.20;64.00
18321;DHT22;54904;54.350;18.664;2022-12-18T11:19:30;7.00;64.00
18321;DHT22;54904;54.350;18.664;2022-12-18T11:21:59;6.80;64.20
18321;DHT22;54904;54.350;18.664;2022-12-18T11:24:30;6.60;64.40
18321;DHT22;54904;54.350;18.664;2022-12-18T11:27:02;6.40;64.80
18321;DHT22;54904;54.350;18.664;2022-12-18T11:29:35;6.30;64.70
18321;DHT22;54904;54.350;18.664;2022-12-18T11:32:24;6.20;64.80
18321;DHT22;54904;54.350;18.664;2022-12-18T11:34:58;6.10;64.80
18321;DHT22;54904;54.350;18.664;2022-12-18T11:37:28;6.00;65.10
18321;DHT22;54904;54.350;18.664;2022-12-18T11:40:01;5.80;65.20
18321;DHT22;54904;54.350;18.664;2022-12-18T11:42:35;5.80;65.60
18321;DHT22;54904;54.350;18.664;2022-12-18T11:45:28;5.70;65.80
18321;DHT22;54904;54.350;18.664;2022-12-18T11:48:04;6.00;66.50
18321;DHT22;54904;54.350;18.664;2022-12-18T11:50:46;5.70;66.80
18321;DHT22;54904;54.350;18.664;2022-12-18T11:53:15;5.60;66.30
18321;DHT22;54904;54.350;18.664;2022-12-18T11:55:54;5.60;66.70
18321;DHT22;54904;54.350;18.664;2022-12-18T11:58:45;5.60;66.90
18321;DHT22;54904;54.350;18.664;2022-12-18T12:01:21;5.50;66.60
18321;DHT22;54904;54.350;18.664;2022-12-18T12:04:24;5.50;67.00
18321;DHT22;54904;54.350;18.664;2022-12-18T12:07:00;5.50;67.10
18321;DHT22;54904;54.350;18.664;2022-12-18T12:09:33;5.50;67.20
18321;DHT22;54904;54.350;18.664;2022-12-18T12:12:15;5.50;66.90
18321;DHT22;54904;54.350;18.664;2022-12-18T12:14:55;5.50;66.90
18321;DHT22;54904;54.350;18.664;2022-12-18T12:17:32;5.50;67.10
18321;DHT22;54904;54.350;18.664;2022-12-18T12:20:11;5.50;67.30
18321;DHT22;54904;54.350;18.664;2022-12-18T12:22:48;5.60;67.50
18321;DHT22;54904;54.350;18.664;2022-12-18T12:25:30;5.80;67.60
18321;DHT22;54904;54.350;18.664;2022-12-18T12:28:12;6.00;67.40
18321;DHT22;54904;54.350;18.664;2022-12-18T12:30:51;6.20;66.80
18321;DHT22;54904;54.350;18.664;2022-12-18T12:33:31;5.90;65.40
18321;DHT22;54904;54.350;18.664;2022-12-18T12:36:06;6.00;65.90
18321;DHT22;54904;54.350;18.664;2022-12-18T12:38:40;5.90;66.20
18321;DHT22;54904;54.350;18.664;2022-12-18T12:41:11;5.80;66.10
18321;DHT22;54904;54.350;18.664;2022-12-18T12:44:02;5.70;66.20
18321;DHT22;54904;54.350;18.664;2022-12-18T12:46:31;5.60;65.80
18321;DHT22;54904;54.350;18.664;2022-12-18T12:49:02;5.60;65.90
18321;DHT22;54904;54.350;18.664;2022-12-18T12:51:32;5.50;66.10
18321;DHT22;54904;54.350;18.664;2022-12-18T12:54:03;5.50;66.20
18321;DHT22;54904;54.350;18.664;2022-12-18T12:56:36;5.50;66.10
18321;DHT22;54904;54.350;18.664;2022-12-18T12:59:13;5.50;65.80
18321;DHT22;54904;54.350;18.664;2022-12-18T13:01:51;5.50;65.90
18321;DHT22;54904;54.350;18.664;2022-12-18T13:04:26;5.50;66.30
18321;DHT22;54904;54.350;18.664;2022-12-18T13:07:00;5.40;65.70
18321;DHT22;54904;54.350;18.664;2022-12-18T13:09:30;5.40;65.50
18321;DHT22;54904;54.350;18.664;2022-12-18T13:12:03;5.30;65.40
18321;DHT22;54904;54.350;18.664;2022-12-18T13:14:49;5.30;65.60
18321;DHT22;54904;54.350;18.664;2022-12-18T13:17:32;5.30;65.80
18321;DHT22;54904;54.350;18.664;2022-12-18T13:20:10;5.00;65.60
18321;DHT22;54904;54.350;18.664;2022-12-18T13:22:42;5.40;66.40
18321;DHT22;54904;54.350;18.664;2022-12-18T13:25:33;4.80;66.30
18321;DHT22;54904;54.350;18.664;2022-12-18T13:28:12;4.70;67.60
18321;DHT22;54904;54.350;18.664;2022-12-18T13:30:59;4.50;68.40
18321;DHT22;54904;54.350;18.664;2022-12-18T13:33:41;4.40;68.10
18321;DHT22;54904;54.350;18.664;2022-12-18T13:36:13;4.30;68.90
18321;DHT22;54904;54.350;18.664;2022-12-18T13:38:42;4.30;68.90
18321;DHT22;54904;54.350;18.664;2022-12-18T13:41:23;4.20;69.30
18321;DHT22;54904;54.350;18.664;2022-12-18T13:43:51;4.10;69.80
18321;DHT22;54904;54.350;18.664;2022-12-18T13:46:24;4.10;70.10
18321;DHT22;54904;54.350;18.664;2022-12-18T13:48:58;4.00;70.20
18321;DHT22;54904;54.350;18.664;2022-12-18T13:51:28;4.00;70.40
18321;DHT22;54904;54.350;18.664;2022-12-18T13:53:58;3.90;71.20
18321;DHT22;54904;54.350;18.664;2022-12-18T13:56:28;3.90;70.80
18321;DHT22;54904;54.350;18.664;2022-12-18T13:59:17;3.90;71.10
18321;DHT22;54904;54.350;18.664;2022-12-18T14:01:49;3.90;71.30
18321;DHT22;54904;54.350;18.664;2022-12-18T14:04:20;3.90;71.40
18321;DHT22;54904;54.350;18.664;2022-12-18T14:06:50;3.90;71.50
18321;DHT22;54904;54.350;18.664;2022-12-18T14:09:24;3.90;71.90
18321;DHT22;54904;54.350;18.664;2022-12-18T14:11:52;3.90;72.00
18321;DHT22;54904;54.350;18.664;2022-12-18T14:14:42;3.90;72.10
18321;DHT22;54904;54.350;18.664;2022-12-18T14:17:12;3.80;72.30
18321;DHT22;54904;54.350;18.664;2022-12-18T14:19:44;3.80;72.50
18321;DHT22;54904;54.350;18.664;2022-12-18T14:22:17;3.80;72.60
18321;DHT22;54904;54.350;18.664;2022-12-18T14:24:44;3.80;72.70
18321;DHT22;54904;54.350;18.664;2022-12-18T14:27:23;3.80;73.20
18321;DHT22;54904;54.350;18.664;2022-12-18T14:29:51;3.70;73.10
18321;DHT22;54904;54.350;18.664;2022-12-18T14:32:20;3.70;73.20
18321;DHT22;54904;54.350;18.664;2022-12-18T14:34:49;3.60;73.10
18321;DHT22;54904;54.350;18.664;2022-12-18T14:37:20;3.50;73.10
18321;DHT22;54904;54.350;18.664;2022-12-18T14:39:55;3.40;73.90
18321;DHT22;54904;54.350;18.664;2022-12-18T14:42:24;3.40;73.50
18321;DHT22;54904;54.350;18.664;2022-12-18T14:48:07;3.30;73.70
18321;DHT22;54904;54.350;18.664;2022-12-18T14:50:35;3.20;73.90
18321;DHT22;54904;54.350;18.664;2022-12-18T14:53:02;3.20;74.20
18321;DHT22;54904;54.350;18.664;2022-12-18T14:55:29;3.10;74.30
18321;DHT22;54904;54.350;18.664;2022-12-18T14:57:57;3.10;74.60
18321;DHT22;54904;54.350;18.664;2022-12-18T15:00:26;3.10;75.10
18321;DHT22;54904;54.350;18.664;2022-12-18T15:02:54;3.10;75.30
18321;DHT22;54904;54.350;18.664;2022-12-18T15:05:27;3.00;75.40
18321;DHT22;54904;54.350;18.664;2022-12-18T15:07:57;3.00;75.60
18321;DHT22;54904;54.350;18.664;2022-12-18T15:10:26;2.90;75.70
18321;DHT22;54904;54.350;18.664;2022-12-18T15:13:08;2.90;76.00
18321;DHT22;54904;54.350;18.664;2022-12-18T15:15:46;2.80;76.20
18321;DHT22;54904;54.350;18.664;2022-12-18T15:18:15;2.80;76.30
18321;DHT22;54904;54.350;18.664;2022-12-18T15:20:46;2.70;76.50
18321;DHT22;54904;54.350;18.664;2022-12-18T15:23:16;2.70;76.60
18321;DHT22;54904;54.350;18.664;2022-12-18T15:25:44;2.60;76.60
18321;DHT22;54904;54.350;18.664;2022-12-18T15:28:19;2.10;76.20
18321;DHT22;54904;54.350;18.664;2022-12-18T15:31:06;2.60;76.80
18321;DHT22;54904;54.350;18.664;2022-12-18T15:33:35;2.50;76.70
18321;DHT22;54904;54.350;18.664;2022-12-18T15:36:07;2.50;76.80
18321;DHT22;54904;54.350;18.664;2022-12-18T15:38:35;2.50;76.80
18321;DHT22;54904;54.350;18.664;2022-12-18T15:41:03;2.40;76.70
18321;DHT22;54904;54.350;18.664;2022-12-18T15:43:30;2.30;77.10
18321;DHT22;54904;54.350;18.664;2022-12-18T15:45:59;2.40;76.90
18321;DHT22;54904;54.350;18.664;2022-12-18T15:48:27;2.30;77.60
18321;DHT22;54904;54.350;18.664;2022-12-18T15:50:56;2.50;77.10
18321;DHT22;54904;54.350;18.664;2022-12-18T15:53:29;2.30;76.70
18321;DHT22;54904;54.350;18.664;2022-12-18T15:55:57;2.20;76.70
18321;DHT22;54904;54.350;18.664;2022-12-18T15:58:42;2.20;76.80
18321;DHT22;54904;54.350;18.664;2022-12-18T16:01:15;2.10;77.70